createdAt,value
2022-08-26T00:00:37.300Z,20.44
2022-08-26T00:01:35.697Z,20.47
2022-08-26T00:02:40.247Z,20.47
2022-08-26T00:03:36.334Z,20.48
2022-08-26T00:04:36.636Z,20.48
2022-08-26T00:05:36.952Z,20.44
2022-08-26T00:06:37.261Z,20.47
2022-08-26T00:07:41.443Z,20.44
2022-08-26T00:08:37.884Z,20.43
2022-08-26T00:09:40.255Z,20.43
2022-08-26T00:10:38.472Z,20.43
2022-08-26T00:11:38.781Z,20.43
2022-08-26T00:12:40.305Z,20.40
2022-08-26T00:13:39.468Z,20.39
2022-08-26T00:14:39.776Z,20.39
2022-08-26T00:15:40.103Z,20.37
2022-08-26T00:16:41.054Z,20.36
2022-08-26T00:17:44.677Z,20.34
2022-08-26T00:18:40.994Z,20.32
2022-08-26T00:19:41.312Z,20.31
2022-08-26T00:20:43.495Z,20.29
2022-08-26T00:21:43.688Z,20.26
2022-08-26T00:22:43.176Z,20.28
2022-08-26T00:23:42.549Z,20.28
2022-08-26T00:24:42.856Z,20.26
2022-08-26T00:25:46.045Z,20.28
2022-08-26T00:26:45.245Z,20.26
2022-08-26T00:27:46.788Z,20.26
2022-08-26T00:28:43.994Z,20.26
2022-08-26T00:29:44.308Z,20.26
2022-08-26T00:30:44.647Z,20.26
2022-08-26T00:31:48.370Z,20.26
2022-08-26T00:32:49.010Z,20.26
2022-08-26T00:33:46.464Z,20.25
2022-08-26T00:34:46.888Z,20.25
2022-08-26T00:35:47.041Z,20.25
2022-08-26T00:36:47.462Z,20.25
2022-08-26T00:37:50.610Z,20.24
2022-08-26T00:38:48.837Z,20.22
2022-08-26T00:39:49.058Z,20.22
2022-08-26T00:40:48.352Z,20.22
2022-08-26T00:41:47.860Z,20.24
2022-08-26T00:42:49.652Z,20.22
2022-08-26T00:43:51.851Z,20.21
2022-08-26T00:44:48.732Z,20.22
2022-08-26T00:45:49.119Z,20.22
2022-08-26T00:46:49.317Z,20.24
2022-08-26T00:47:53.531Z,20.25
2022-08-26T00:48:51.789Z,20.25
2022-08-26T00:49:50.181Z,20.25
2022-08-26T00:50:50.485Z,20.26
2022-08-26T00:51:50.822Z,20.28
2022-08-26T00:52:53.120Z,20.26
2022-08-26T00:53:53.284Z,20.26
2022-08-26T00:54:54.101Z,20.26
2022-08-26T00:55:52.005Z,20.25
2022-08-26T00:56:52.340Z,20.24
2022-08-26T00:57:53.559Z,20.22
2022-08-26T00:58:53.759Z,20.22
2022-08-26T00:59:55.270Z,20.19
2022-08-26T01:00:55.492Z,20.19
2022-08-26T01:01:55.717Z,20.19
2022-08-26T01:02:55.822Z,20.18
2022-08-26T01:03:55.994Z,20.18
2022-08-26T01:04:56.335Z,20.18
2022-08-26T01:05:54.816Z,20.16
2022-08-26T01:06:55.127Z,20.14
2022-08-26T01:07:58.794Z,20.13
2022-08-26T01:08:57.486Z,20.13
2022-08-26T01:09:56.046Z,20.13
2022-08-26T01:10:56.236Z,20.11
2022-08-26T01:11:56.568Z,20.11
2022-08-26T01:12:58.742Z,20.10
2022-08-26T01:13:58.951Z,20.10
2022-08-26T01:14:59.130Z,20.10
2022-08-26T01:15:59.385Z,20.10
2022-08-26T01:16:59.997Z,20.09
2022-08-26T01:18:00.272Z,20.10
2022-08-26T01:18:58.597Z,20.09
2022-08-26T01:20:00.827Z,20.07
2022-08-26T01:20:59.179Z,20.09
2022-08-26T01:22:01.369Z,20.09
2022-08-26T01:23:01.531Z,20.10
2022-08-26T01:24:00.045Z,20.09
2022-08-26T01:25:00.347Z,20.09
2022-08-26T01:26:02.601Z,20.09
2022-08-26T01:27:01.015Z,20.09
2022-08-26T01:28:03.185Z,20.09
2022-08-26T01:29:01.572Z,20.09
2022-08-26T01:30:03.741Z,20.10
2022-08-26T01:31:02.381Z,20.10
2022-08-26T01:32:05.066Z,20.09
2022-08-26T01:33:04.540Z,20.10
2022-08-26T01:34:03.032Z,20.09
2022-08-26T01:35:03.345Z,20.09
2022-08-26T01:36:03.702Z,20.09
2022-08-26T01:37:03.892Z,20.09
2022-08-26T01:38:06.103Z,20.09
2022-08-26T01:39:05.903Z,20.09
2022-08-26T01:40:04.785Z,20.10
2022-08-26T01:41:11.622Z,20.09
2022-08-26T01:42:10.277Z,20.09
2022-08-26T01:43:07.692Z,20.07
2022-08-26T01:44:05.979Z,20.07
2022-08-26T01:45:06.234Z,20.07
2022-08-26T01:46:08.468Z,20.09
2022-08-26T01:47:07.617Z,20.07
2022-08-26T01:48:07.155Z,20.06
2022-08-26T01:49:07.780Z,20.06
2022-08-26T01:50:07.728Z,20.06
2022-08-26T01:51:08.016Z,20.06
2022-08-26T01:52:11.248Z,20.04
2022-08-26T01:53:10.736Z,20.06
2022-08-26T01:54:12.075Z,20.03
2022-08-26T01:55:09.167Z,20.03
2022-08-26T01:56:10.341Z,20.03
2022-08-26T01:57:11.230Z,20.03
2022-08-26T01:58:11.960Z,20.03
2022-08-26T01:59:10.751Z,20.03
2022-08-26T02:00:10.596Z,20.02
2022-08-26T02:01:10.989Z,20.00
2022-08-26T02:02:12.071Z,20.02
2022-08-26T02:03:13.464Z,20.00
2022-08-26T02:04:11.712Z,19.99
2022-08-26T02:05:12.046Z,19.99
2022-08-26T02:06:12.250Z,20.00
2022-08-26T02:07:13.381Z,20.00
2022-08-26T02:08:14.788Z,20.00
2022-08-26T02:09:15.955Z,19.99
2022-08-26T02:10:13.369Z,19.99
2022-08-26T02:11:15.547Z,19.99
2022-08-26T02:12:14.947Z,20.00
2022-08-26T02:13:14.322Z,19.99
2022-08-26T02:14:14.627Z,19.96
2022-08-26T02:15:16.806Z,19.96
2022-08-26T02:16:15.286Z,19.95
2022-08-26T02:17:16.523Z,19.95
2022-08-26T02:18:15.897Z,19.95
2022-08-26T02:19:17.056Z,19.94
2022-08-26T02:20:18.413Z,19.92
2022-08-26T02:21:16.796Z,19.92
2022-08-26T02:22:18.086Z,19.91
2022-08-26T02:23:17.463Z,19.91
2022-08-26T02:24:17.770Z,19.89
2022-08-26T02:25:19.961Z,19.88
2022-08-26T02:26:19.320Z,19.88
2022-08-26T02:27:22.237Z,19.86
2022-08-26T02:28:20.707Z,19.88
2022-08-26T02:29:19.968Z,19.88
2022-08-26T02:30:20.129Z,19.86
2022-08-26T02:31:21.609Z,19.86
2022-08-26T02:32:23.256Z,19.85
2022-08-26T02:33:21.137Z,19.88
2022-08-26T02:34:21.539Z,19.86
2022-08-26T02:35:22.725Z,19.88
2022-08-26T02:36:22.906Z,19.86
2022-08-26T02:37:24.331Z,19.86
2022-08-26T02:38:21.644Z,19.85
2022-08-26T02:39:22.373Z,19.85
2022-08-26T02:40:23.033Z,19.85
2022-08-26T02:41:25.859Z,19.86
2022-08-26T02:42:26.590Z,19.84
2022-08-26T02:43:31.288Z,19.82
2022-08-26T02:44:25.506Z,19.82
2022-08-26T02:45:24.582Z,19.82
2022-08-26T02:46:29.820Z,19.81
2022-08-26T02:47:25.183Z,19.81
2022-08-26T02:48:25.316Z,19.79
2022-08-26T02:49:25.478Z,19.79
2022-08-26T02:50:24.972Z,19.77
2022-08-26T02:51:27.170Z,19.77
2022-08-26T02:52:28.303Z,19.79
2022-08-26T02:53:25.822Z,19.79
2022-08-26T02:54:28.012Z,19.81
2022-08-26T02:55:26.399Z,19.77
2022-08-26T02:56:28.609Z,19.79
2022-08-26T02:57:30.764Z,19.77
2022-08-26T02:58:28.192Z,19.76
2022-08-26T02:59:29.566Z,19.77
2022-08-26T03:00:29.803Z,19.76
2022-08-26T03:01:30.268Z,19.76
2022-08-26T03:02:29.354Z,19.74
2022-08-26T03:03:28.746Z,19.74
2022-08-26T03:04:29.021Z,19.74
2022-08-26T03:05:31.200Z,19.74
2022-08-26T03:06:30.394Z,19.74
2022-08-26T03:07:31.386Z,19.74
2022-08-26T03:08:32.195Z,19.74
2022-08-26T03:09:32.398Z,19.73
2022-08-26T03:10:32.594Z,19.73
2022-08-26T03:11:33.313Z,19.71
2022-08-26T03:12:34.275Z,19.73
2022-08-26T03:13:31.605Z,19.71
2022-08-26T03:14:33.817Z,19.70
2022-08-26T03:15:32.503Z,19.73
2022-08-26T03:16:34.240Z,19.73
2022-08-26T03:17:35.849Z,19.74
2022-08-26T03:18:33.194Z,19.76
2022-08-26T03:19:35.372Z,19.74
2022-08-26T03:20:35.573Z,19.74
2022-08-26T03:21:35.726Z,19.74
2022-08-26T03:22:36.128Z,19.74
2022-08-26T03:23:34.410Z,19.73
2022-08-26T03:24:34.725Z,19.71
2022-08-26T03:25:35.028Z,19.73
2022-08-26T03:26:37.227Z,19.70
2022-08-26T03:27:36.681Z,19.71
2022-08-26T03:28:35.932Z,19.71
2022-08-26T03:29:36.159Z,19.70
2022-08-26T03:30:36.396Z,19.69
2022-08-26T03:31:38.646Z,19.69
2022-08-26T03:32:38.007Z,19.67
2022-08-26T03:33:37.386Z,19.64
2022-08-26T03:34:39.523Z,19.64
2022-08-26T03:35:37.922Z,19.64
2022-08-26T03:36:38.183Z,19.63
2022-08-26T03:37:41.403Z,19.63
2022-08-26T03:38:38.694Z,19.63
2022-08-26T03:39:38.921Z,19.62
2022-08-26T03:40:39.247Z,19.62
2022-08-26T03:41:41.434Z,19.62
2022-08-26T03:42:45.306Z,19.62
2022-08-26T03:43:41.853Z,19.62
2022-08-26T03:44:40.373Z,19.59
2022-08-26T03:45:40.765Z,19.58
2022-08-26T03:46:43.049Z,19.56
2022-08-26T03:47:45.125Z,19.55
2022-08-26T03:48:41.461Z,19.56
2022-08-26T03:49:43.786Z,19.58
2022-08-26T03:50:42.066Z,19.56
2022-08-26T03:51:44.275Z,19.54
2022-08-26T03:52:46.553Z,19.55
2022-08-26T03:53:44.762Z,19.52
2022-08-26T03:54:43.484Z,19.51
2022-08-26T03:55:43.531Z,19.51
2022-08-26T03:56:46.554Z,19.49
2022-08-26T03:57:45.689Z,19.51
2022-08-26T03:58:44.462Z,19.51
2022-08-26T03:59:46.645Z,19.49
2022-08-26T04:00:45.036Z,19.48
2022-08-26T04:01:45.337Z,19.48
2022-08-26T04:02:49.092Z,19.45
2022-08-26T04:03:45.751Z,19.47
2022-08-26T04:04:46.079Z,19.48
2022-08-26T04:05:46.433Z,19.47
2022-08-26T04:06:48.602Z,19.47
2022-08-26T04:07:48.584Z,19.47
2022-08-26T04:08:47.241Z,19.44
2022-08-26T04:09:47.460Z,19.45
2022-08-26T04:10:47.817Z,19.44
2022-08-26T04:11:51.451Z,19.45
2022-08-26T04:12:52.264Z,19.40
2022-08-26T04:13:48.708Z,19.44
2022-08-26T04:14:49.019Z,19.44
2022-08-26T04:15:49.288Z,19.44
2022-08-26T04:16:51.449Z,19.45
2022-08-26T04:17:51.844Z,19.44
2022-08-26T04:18:50.147Z,19.44
2022-08-26T04:19:52.342Z,19.41
2022-08-26T04:20:50.665Z,19.41
2022-08-26T04:21:52.851Z,19.44
2022-08-26T04:22:54.057Z,19.45
2022-08-26T04:23:53.263Z,19.44
2022-08-26T04:24:51.839Z,19.41
2022-08-26T04:25:51.893Z,19.45
2022-08-26T04:26:54.076Z,19.44
2022-08-26T04:27:54.246Z,19.45
2022-08-26T04:28:52.651Z,19.44
2022-08-26T04:29:55.327Z,19.45
2022-08-26T04:30:54.217Z,19.45
2022-08-26T04:31:57.487Z,19.45
2022-08-26T04:32:55.710Z,19.45
2022-08-26T04:33:55.900Z,19.47
2022-08-26T04:34:55.587Z,19.45
2022-08-26T04:35:54.917Z,19.45
2022-08-26T04:36:55.144Z,19.45
2022-08-26T04:37:57.309Z,19.45
2022-08-26T04:38:57.491Z,19.47
2022-08-26T04:39:57.698Z,19.47
2022-08-26T04:40:56.217Z,19.47
2022-08-26T04:41:58.447Z,19.47
2022-08-26T04:42:56.729Z,19.48
2022-08-26T04:43:58.916Z,19.49
2022-08-26T04:44:58.216Z,19.49
2022-08-26T04:45:59.157Z,19.49
2022-08-26T04:46:58.829Z,19.49
2022-08-26T04:47:59.205Z,19.51
2022-08-26T04:49:00.425Z,19.49
2022-08-26T04:49:58.859Z,19.51
2022-08-26T04:50:59.101Z,19.51
2022-08-26T04:52:02.011Z,19.54
2022-08-26T04:53:02.038Z,19.54
2022-08-26T04:54:01.647Z,19.55
2022-08-26T04:55:00.162Z,19.55
2022-08-26T04:56:00.405Z,19.55
2022-08-26T04:57:02.596Z,19.58
2022-08-26T04:58:02.784Z,19.58
2022-08-26T04:59:01.152Z,19.59
2022-08-26T05:00:03.323Z,19.62
2022-08-26T05:01:01.634Z,19.70
2022-08-26T05:02:01.937Z,19.77
2022-08-26T05:03:02.191Z,19.84
2022-08-26T05:04:05.043Z,19.88
2022-08-26T05:05:02.671Z,19.91
2022-08-26T05:06:04.861Z,19.89
2022-08-26T05:07:07.004Z,19.96
2022-08-26T05:08:05.225Z,19.96
2022-08-26T05:09:04.619Z,19.91
2022-08-26T05:10:08.814Z,19.89
2022-08-26T05:11:04.374Z,19.91
2022-08-26T05:12:04.679Z,19.95
2022-08-26T05:13:10.692Z,20.03
2022-08-26T05:14:07.200Z,20.19
2022-08-26T05:15:07.447Z,20.32
2022-08-26T05:16:07.693Z,20.40
2022-08-26T05:17:07.783Z,20.43
2022-08-26T05:18:06.258Z,20.60
2022-08-26T05:19:07.502Z,20.75
2022-08-26T05:20:08.841Z,20.84
2022-08-26T05:21:09.033Z,20.84
2022-08-26T05:22:09.228Z,20.97
2022-08-26T05:23:09.589Z,20.97
2022-08-26T05:24:12.099Z,20.95
2022-08-26T05:25:10.340Z,20.97
2022-08-26T05:26:10.493Z,20.96
2022-08-26T05:27:11.740Z,21.05
2022-08-26T05:28:10.208Z,21.20
2022-08-26T05:29:09.513Z,21.18
2022-08-26T05:30:11.715Z,21.22
2022-08-26T05:31:10.063Z,21.30
2022-08-26T05:32:11.250Z,21.40
2022-08-26T05:33:13.573Z,21.45
2022-08-26T05:34:10.887Z,21.42
2022-08-26T05:35:13.148Z,21.46
2022-08-26T05:36:12.257Z,21.48
2022-08-26T05:37:11.701Z,21.57
2022-08-26T05:38:15.912Z,21.52
2022-08-26T05:39:12.237Z,21.46
2022-08-26T05:40:12.627Z,21.42
2022-08-26T05:41:14.776Z,21.61
2022-08-26T05:42:13.130Z,21.52
2022-08-26T05:43:16.453Z,21.52
2022-08-26T05:44:14.034Z,21.61
2022-08-26T05:45:15.849Z,21.48
2022-08-26T05:46:16.064Z,21.66
2022-08-26T05:47:14.515Z,21.85
2022-08-26T05:48:16.147Z,22.11
2022-08-26T05:49:16.603Z,22.38
2022-08-26T05:50:15.274Z,22.54
2022-08-26T05:51:17.454Z,22.72
2022-08-26T05:52:15.752Z,22.91
2022-08-26T05:53:19.075Z,22.75
2022-08-26T05:54:22.121Z,22.51
2022-08-26T05:55:17.516Z,22.48
2022-08-26T05:56:18.704Z,22.33
2022-08-26T05:57:17.153Z,22.33
2022-08-26T05:58:20.388Z,22.47
2022-08-26T05:59:24.086Z,22.48
2022-08-26T06:00:18.965Z,22.47
2022-08-26T06:01:20.269Z,22.35
2022-08-26T06:02:18.535Z,22.22
2022-08-26T06:03:21.762Z,22.11
2022-08-26T06:04:20.021Z,21.95
2022-08-26T06:05:21.354Z,21.88
2022-08-26T06:06:27.398Z,21.77
2022-08-26T06:07:21.147Z,21.76
2022-08-26T06:08:24.292Z,21.89
2022-08-26T06:09:20.740Z,21.93
2022-08-26T06:10:32.039Z,22.02
2022-08-26T06:11:22.235Z,22.25
2022-08-26T06:12:21.548Z,22.41
2022-08-26T06:13:24.841Z,22.44
2022-08-26T06:14:23.942Z,22.47
2022-08-26T06:15:22.250Z,22.44
2022-08-26T06:16:24.508Z,22.50
2022-08-26T06:17:22.777Z,22.32
2022-08-26T06:18:26.934Z,22.43
2022-08-26T06:19:25.141Z,22.45
2022-08-26T06:20:24.599Z,22.51
2022-08-26T06:21:25.782Z,22.63
2022-08-26T06:22:24.105Z,22.57
2022-08-26T06:23:25.151Z,22.53
2022-08-26T06:24:27.274Z,22.53
2022-08-26T06:25:24.889Z,22.65
2022-08-26T06:26:25.136Z,22.65
2022-08-26T06:27:30.651Z,22.69
2022-08-26T06:28:29.977Z,22.76
2022-08-26T06:29:27.702Z,22.80
2022-08-26T06:30:26.256Z,22.75
2022-08-26T06:31:26.646Z,22.75
2022-08-26T06:32:28.780Z,22.91
2022-08-26T06:33:29.032Z,22.96
2022-08-26T06:34:30.981Z,22.99
2022-08-26T06:35:31.390Z,23.02
2022-08-26T06:36:28.097Z,22.94
2022-08-26T06:37:29.202Z,23.02
2022-08-26T06:38:29.621Z,23.12
2022-08-26T06:39:31.404Z,23.32
2022-08-26T06:40:30.746Z,23.21
2022-08-26T06:41:30.339Z,23.00
2022-08-26T06:42:29.774Z,23.21
2022-08-26T06:43:30.026Z,23.13
2022-08-26T06:44:32.678Z,23.31
2022-08-26T06:45:31.990Z,23.27
2022-08-26T06:46:30.840Z,23.47
2022-08-26T06:47:31.060Z,23.46
2022-08-26T06:48:31.311Z,23.59
2022-08-26T06:49:34.946Z,24.03
2022-08-26T06:50:34.774Z,24.29
2022-08-26T06:51:32.970Z,23.99
2022-08-26T06:52:33.384Z,23.78
2022-08-26T06:53:33.547Z,23.81
2022-08-26T06:54:32.913Z,24.01
2022-08-26T06:55:37.175Z,24.08
2022-08-26T06:56:35.457Z,24.05
2022-08-26T06:57:34.862Z,23.91
2022-08-26T06:58:34.850Z,23.81
2022-08-26T06:59:36.231Z,24.18
2022-08-26T07:00:37.482Z,24.43
2022-08-26T07:01:36.730Z,24.40
2022-08-26T07:02:35.120Z,24.61
2022-08-26T07:03:39.913Z,24.63
2022-08-26T07:04:38.930Z,24.65
2022-08-26T07:05:36.738Z,24.51
2022-08-26T07:06:37.157Z,24.63
2022-08-26T07:07:37.316Z,24.47
2022-08-26T07:08:37.474Z,24.51
2022-08-26T07:09:40.839Z,24.60
2022-08-26T07:10:38.315Z,24.40
2022-08-26T07:11:37.620Z,24.38
2022-08-26T07:12:39.821Z,24.53
2022-08-26T07:13:38.200Z,24.47
2022-08-26T07:14:38.456Z,24.66
2022-08-26T07:15:39.642Z,24.85
2022-08-26T07:16:38.997Z,25.29
2022-08-26T07:17:40.178Z,25.36
2022-08-26T07:18:41.371Z,25.23
2022-08-26T07:19:39.902Z,25.21
2022-08-26T07:20:44.074Z,25.11
2022-08-26T07:21:42.299Z,25.48
2022-08-26T07:22:42.557Z,25.66
2022-08-26T07:23:42.652Z,25.60
2022-08-26T07:24:43.139Z,25.43
2022-08-26T07:25:42.510Z,25.41
2022-08-26T07:26:42.933Z,25.32
2022-08-26T07:27:42.926Z,25.31
2022-08-26T07:28:42.468Z,25.54
2022-08-26T07:29:43.653Z,25.72
2022-08-26T07:30:46.899Z,25.78
2022-08-26T07:31:43.230Z,26.05
2022-08-26T07:32:45.376Z,26.23
2022-08-26T07:33:45.558Z,26.10
2022-08-26T07:34:45.726Z,26.23
2022-08-26T07:35:47.177Z,26.43
2022-08-26T07:36:44.640Z,26.75
2022-08-26T07:37:46.829Z,26.96
2022-08-26T07:38:47.028Z,27.03
2022-08-26T07:39:45.439Z,26.92
2022-08-26T07:40:48.743Z,26.97
2022-08-26T07:41:45.990Z,26.65
2022-08-26T07:42:48.224Z,26.40
2022-08-26T07:43:46.667Z,26.36
2022-08-26T07:44:46.941Z,26.37
2022-08-26T07:45:51.162Z,26.28
2022-08-26T07:46:52.397Z,26.47
2022-08-26T07:47:48.742Z,26.25
2022-08-26T07:48:48.071Z,26.19
2022-08-26T07:49:52.712Z,26.43
2022-08-26T07:50:50.856Z,26.53
2022-08-26T07:51:50.631Z,26.38
2022-08-26T07:52:49.193Z,26.55
2022-08-26T07:53:52.408Z,26.38
2022-08-26T07:54:49.662Z,26.34
2022-08-26T07:55:53.903Z,26.07
2022-08-26T07:56:52.124Z,26.26
2022-08-26T07:57:50.539Z,26.36
2022-08-26T07:58:51.355Z,26.29
2022-08-26T07:59:51.025Z,26.22
2022-08-26T08:00:55.209Z,26.28
2022-08-26T08:01:53.485Z,26.63
2022-08-26T08:02:51.791Z,26.45
2022-08-26T08:03:52.083Z,26.59
2022-08-26T08:04:54.271Z,26.60
2022-08-26T08:05:55.566Z,26.58
2022-08-26T08:06:52.795Z,26.95
2022-08-26T08:08:26.648Z,26.55
2022-08-26T08:08:54.329Z,26.53
2022-08-26T08:09:55.507Z,26.77
2022-08-26T08:10:56.962Z,27.26
2022-08-26T08:11:54.168Z,27.64
2022-08-26T08:12:56.389Z,27.55
2022-08-26T08:13:56.311Z,27.92
2022-08-26T08:14:54.927Z,28.30
2022-08-26T08:15:59.126Z,28.49
2022-08-26T08:16:55.538Z,28.64
2022-08-26T08:18:00.209Z,28.54
2022-08-26T08:18:56.020Z,28.47
2022-08-26T08:19:56.262Z,28.14
2022-08-26T08:21:21.177Z,28.08
2022-08-26T08:21:57.839Z,27.87
2022-08-26T08:22:59.035Z,27.89
2022-08-26T08:23:57.362Z,27.96
2022-08-26T08:24:57.606Z,28.10
2022-08-26T08:26:01.783Z,28.08
2022-08-26T08:26:58.245Z,28.11
2022-08-26T08:28:00.434Z,28.27
2022-08-26T08:29:00.626Z,28.30
2022-08-26T08:29:59.054Z,28.63
2022-08-26T08:30:59.374Z,28.30
2022-08-26T08:32:00.009Z,28.45
2022-08-26T08:32:59.966Z,28.19
2022-08-26T08:34:02.156Z,28.10
2022-08-26T08:35:00.485Z,28.02
2022-08-26T08:36:00.737Z,28.15
2022-08-26T08:37:00.990Z,27.89
2022-08-26T08:38:01.371Z,28.19
2022-08-26T08:39:01.565Z,28.00
2022-08-26T08:40:03.831Z,28.19
2022-08-26T08:41:03.451Z,28.35
2022-08-26T08:42:02.419Z,28.52
2022-08-26T08:43:02.733Z,28.26
2022-08-26T08:44:02.986Z,28.42
2022-08-26T08:45:05.167Z,28.47
2022-08-26T08:46:03.545Z,28.93
2022-08-26T08:47:05.671Z,29.23
2022-08-26T08:48:04.002Z,29.23
2022-08-26T08:49:04.248Z,28.98
2022-08-26T08:50:04.495Z,29.08
2022-08-26T08:51:06.650Z,29.05
2022-08-26T08:52:06.841Z,29.08
2022-08-26T08:53:08.868Z,29.10
2022-08-26T08:54:05.594Z,29.16
2022-08-26T08:55:11.027Z,28.91
2022-08-26T08:56:08.634Z,28.20
2022-08-26T08:57:08.369Z,28.02
2022-08-26T08:58:08.107Z,28.02
2022-08-26T08:59:08.871Z,28.49
2022-08-26T09:00:08.044Z,28.88
2022-08-26T09:01:09.762Z,29.07
2022-08-26T09:02:08.649Z,29.51
2022-08-26T09:03:09.027Z,30.03
2022-08-26T09:04:09.447Z,30.05
2022-08-26T09:05:09.607Z,29.94
2022-08-26T09:06:10.966Z,29.81
2022-08-26T09:07:11.139Z,29.87
2022-08-26T09:08:11.242Z,29.75
2022-08-26T09:09:09.765Z,29.36
2022-08-26T09:10:10.022Z,29.35
2022-08-26T09:11:12.201Z,29.76
2022-08-26T09:12:10.516Z,29.27
2022-08-26T09:13:13.823Z,28.85
2022-08-26T09:14:11.047Z,29.19
2022-08-26T09:15:11.362Z,29.27
2022-08-26T09:16:13.487Z,29.04
2022-08-26T09:17:11.945Z,29.42
2022-08-26T09:18:12.179Z,29.53
2022-08-26T09:19:14.366Z,29.57
2022-08-26T09:20:13.542Z,29.93
2022-08-26T09:21:14.899Z,30.05
2022-08-26T09:22:15.138Z,29.61
2022-08-26T09:23:13.555Z,29.41
2022-08-26T09:24:14.831Z,29.02
2022-08-26T09:25:14.850Z,29.32
2022-08-26T09:26:16.286Z,29.90
2022-08-26T09:27:16.424Z,30.37
2022-08-26T09:28:15.845Z,30.43
2022-08-26T09:29:16.088Z,30.19
2022-08-26T09:30:16.971Z,29.97
2022-08-26T09:31:17.698Z,30.21
2022-08-26T09:32:19.314Z,30.43
2022-08-26T09:33:16.201Z,30.27
2022-08-26T09:34:18.333Z,29.49
2022-08-26T09:35:17.731Z,29.39
2022-08-26T09:36:17.059Z,29.29
2022-08-26T09:37:17.309Z,29.07
2022-08-26T09:38:19.529Z,28.75
2022-08-26T09:39:18.759Z,28.60
2022-08-26T09:40:21.123Z,28.49
2022-08-26T09:41:20.141Z,28.62
2022-08-26T09:42:20.830Z,28.70
2022-08-26T09:43:22.221Z,29.05
2022-08-26T09:44:19.467Z,29.34
2022-08-26T09:45:23.718Z,29.71
2022-08-26T09:46:20.145Z,29.86
2022-08-26T09:47:22.261Z,29.94
2022-08-26T09:48:20.639Z,30.40
2022-08-26T09:49:20.877Z,30.40
2022-08-26T09:50:22.668Z,30.44
2022-08-26T09:51:22.472Z,29.91
2022-08-26T09:52:23.733Z,30.47
2022-08-26T09:53:28.539Z,31.07
2022-08-26T09:54:23.303Z,31.49
2022-08-26T09:55:24.520Z,31.73
2022-08-26T09:56:22.897Z,31.22
2022-08-26T09:57:25.045Z,31.10
2022-08-26T09:58:23.364Z,30.66
2022-08-26T09:59:25.526Z,30.54
2022-08-26T10:00:24.801Z,30.30
2022-08-26T10:01:24.331Z,30.10
2022-08-26T10:02:26.438Z,29.97
2022-08-26T10:03:26.613Z,30.05
2022-08-26T10:04:25.282Z,30.24
2022-08-26T10:05:26.373Z,29.73
2022-08-26T10:06:25.689Z,29.72
2022-08-26T10:07:27.910Z,29.66
2022-08-26T10:08:28.122Z,29.84
2022-08-26T10:09:26.554Z,30.24
2022-08-26T10:10:27.682Z,30.83
2022-08-26T10:11:27.041Z,31.22
2022-08-26T10:12:30.691Z,31.55
2022-08-26T10:13:29.574Z,31.33
2022-08-26T10:14:29.606Z,30.88
2022-08-26T10:15:28.993Z,30.37
2022-08-26T10:16:30.402Z,30.10
2022-08-26T10:17:30.864Z,30.18
2022-08-26T10:18:33.766Z,30.39
2022-08-26T10:19:56.038Z,30.81
2022-08-26T10:20:31.333Z,30.92
2022-08-26T10:21:31.679Z,31.36
2022-08-26T10:22:29.999Z,31.74
2022-08-26T10:23:30.285Z,31.77
2022-08-26T10:24:32.437Z,31.47
2022-08-26T10:25:31.619Z,30.55
2022-08-26T10:26:32.988Z,30.06
2022-08-26T10:27:33.167Z,29.93
2022-08-26T10:28:33.356Z,30.08
2022-08-26T10:29:32.772Z,30.03
2022-08-26T10:30:33.192Z,29.84
2022-08-26T10:31:40.100Z,29.50
2022-08-26T10:32:35.698Z,29.12
2022-08-26T10:33:35.894Z,29.79
2022-08-26T10:34:34.338Z,30.62
2022-08-26T10:35:33.650Z,30.94
2022-08-26T10:36:39.340Z,30.00
2022-08-26T10:37:35.141Z,29.24
2022-08-26T10:38:36.330Z,28.97
2022-08-26T10:39:35.502Z,29.04
2022-08-26T10:40:37.021Z,29.10
2022-08-26T10:41:35.305Z,28.79
2022-08-26T10:42:37.774Z,28.54
2022-08-26T10:43:37.711Z,28.42
2022-08-26T10:44:39.013Z,28.72
2022-08-26T10:45:36.359Z,28.93
2022-08-26T10:46:36.561Z,28.94
2022-08-26T10:47:36.845Z,28.96
2022-08-26T10:48:37.099Z,28.81
2022-08-26T10:49:41.265Z,29.04
2022-08-26T10:50:37.619Z,29.16
2022-08-26T10:51:37.861Z,29.17
2022-08-26T10:52:38.115Z,29.36
2022-08-26T10:53:44.358Z,29.86
2022-08-26T10:54:39.599Z,30.27
2022-08-26T10:55:38.893Z,30.27
2022-08-26T10:56:39.145Z,30.65
2022-08-26T10:57:40.327Z,30.40
2022-08-26T10:58:39.668Z,30.02
2022-08-26T10:59:42.948Z,30.00
2022-08-26T11:00:40.202Z,29.91
2022-08-26T11:01:41.540Z,30.31
2022-08-26T11:02:41.634Z,30.47
2022-08-26T11:03:42.115Z,30.46
2022-08-26T11:04:48.488Z,30.75
2022-08-26T11:05:41.705Z,30.62
2022-08-26T11:06:41.990Z,30.84
2022-08-26T11:07:42.198Z,30.57
2022-08-26T11:08:42.452Z,30.73
2022-08-26T11:09:46.605Z,30.57
2022-08-26T11:10:44.860Z,30.31
2022-08-26T11:11:43.171Z,30.46
2022-08-26T11:12:49.390Z,30.47
2022-08-26T11:13:44.683Z,30.25
2022-08-26T11:14:58.548Z,30.31
2022-08-26T11:15:46.018Z,30.43
2022-08-26T11:16:45.516Z,30.25
2022-08-26T11:17:45.582Z,30.47
2022-08-26T11:18:46.932Z,30.48
2022-08-26T11:20:00.283Z,30.57
2022-08-26T11:20:47.220Z,30.85
2022-08-26T11:21:47.682Z,31.25
2022-08-26T11:22:47.902Z,31.42
2022-08-26T11:23:50.502Z,31.44
2022-08-26T11:24:48.470Z,31.46
2022-08-26T11:25:47.875Z,30.92
2022-08-26T11:26:56.222Z,30.05
2022-08-26T11:27:48.568Z,29.16
2022-08-26T11:28:49.767Z,28.56
2022-08-26T11:29:48.206Z,28.27
2022-08-26T11:30:48.459Z,28.12
2022-08-26T11:31:51.736Z,27.90
2022-08-26T11:32:51.930Z,27.85
2022-08-26T11:33:49.267Z,27.82
2022-08-26T11:34:51.448Z,27.71
2022-08-26T11:35:50.768Z,27.60
2022-08-26T11:36:50.914Z,27.49
2022-08-26T11:37:51.332Z,27.60
2022-08-26T11:38:54.033Z,27.59
2022-08-26T11:39:55.560Z,27.47
2022-08-26T11:40:52.952Z,27.33
2022-08-26T11:41:53.625Z,27.25
2022-08-26T11:42:51.978Z,27.20
2022-08-26T11:43:53.058Z,27.18
2022-08-26T11:44:55.550Z,27.26
2022-08-26T11:45:54.609Z,27.25
2022-08-26T11:46:54.820Z,27.29
2022-08-26T11:47:54.980Z,27.22
2022-08-26T11:48:56.268Z,27.17
2022-08-26T11:49:55.478Z,27.20
2022-08-26T11:50:55.165Z,27.22
2022-08-26T11:51:56.385Z,27.33
2022-08-26T11:52:56.586Z,27.25
2022-08-26T11:53:57.988Z,27.15
2022-08-26T11:54:57.550Z,27.12
2022-08-26T11:55:55.724Z,27.07
2022-08-26T11:56:57.919Z,26.84
2022-08-26T11:57:56.358Z,26.73
2022-08-26T11:58:57.979Z,26.60
2022-08-26T11:59:58.678Z,26.56
2022-08-26T12:00:57.146Z,26.55
2022-08-26T12:01:59.310Z,26.55
2022-08-26T12:02:57.631Z,26.51
2022-08-26T12:04:01.887Z,26.48
2022-08-26T12:05:00.056Z,26.44
2022-08-26T12:05:58.448Z,26.48
2022-08-26T12:07:00.646Z,26.51
2022-08-26T12:07:58.959Z,26.59
2022-08-26T12:09:03.143Z,26.53
2022-08-26T12:10:02.099Z,26.45
2022-08-26T12:11:01.551Z,26.43
2022-08-26T12:12:00.041Z,26.34
2022-08-26T12:13:02.279Z,26.19
2022-08-26T12:14:01.441Z,25.99
2022-08-26T12:15:04.801Z,25.81
2022-08-26T12:16:01.234Z,25.58
2022-08-26T12:17:03.334Z,25.46
2022-08-26T12:18:01.678Z,25.38
2022-08-26T12:19:01.914Z,25.41
2022-08-26T12:20:03.182Z,25.48
2022-08-26T12:21:05.900Z,25.36
2022-08-26T12:22:02.756Z,25.44
2022-08-26T12:23:03.032Z,25.50
2022-08-26T12:24:03.276Z,25.47
2022-08-26T12:25:04.490Z,25.50
2022-08-26T12:26:05.759Z,25.51
2022-08-26T12:27:04.138Z,25.47
2022-08-26T12:28:06.378Z,25.47
2022-08-26T12:29:12.864Z,25.53
2022-08-26T12:30:08.871Z,25.41
2022-08-26T12:31:05.182Z,25.38
2022-08-26T12:32:07.409Z,25.22
2022-08-26T12:33:22.506Z,25.21
2022-08-26T12:34:17.420Z,25.22
2022-08-26T12:35:08.153Z,25.14
2022-08-26T12:36:08.510Z,25.07
2022-08-26T12:37:08.692Z,25.01
2022-08-26T12:38:07.427Z,24.85
2022-08-26T12:39:07.463Z,24.85
2022-08-26T12:40:10.855Z,24.65
2022-08-26T12:41:07.942Z,24.48
2022-08-26T12:42:08.643Z,24.48
2022-08-26T12:43:10.319Z,24.06
2022-08-26T12:44:08.763Z,23.98
2022-08-26T12:45:12.035Z,23.86
2022-08-26T12:46:09.243Z,23.87
2022-08-26T12:47:11.433Z,23.84
2022-08-26T12:48:09.890Z,23.88
2022-08-26T12:49:09.962Z,23.98
2022-08-26T12:50:13.648Z,24.02
2022-08-26T12:51:10.471Z,24.17
2022-08-26T12:52:12.656Z,24.30
2022-08-26T12:53:10.971Z,24.53
2022-08-26T12:54:11.214Z,24.63
2022-08-26T12:55:12.363Z,24.80
2022-08-26T12:56:13.224Z,24.88